Lamoille, NV (89828)

1:24 PM PST on March 01, 2015 (GMT -0800)
APRSWXNET Lamoille NV US | Change Station
CLOSE
Current Station
Personal Weather Station
Location: Lamoille, NV
Elevation: 5895 ft
Nearby Weather Stations

Elev 5895 ft 40.70 °N, 115.54 °W | Updated 24 minutes ago

Partly Cloudy
Partly Cloudy
42 °F
Feels Like 39 °F
N
5
Wind Variable Wind from NNE
Gusts 8.0 mph

Today
High -- | Low -- °F
--% Chance of Precip.
Yesterday
High -- | Low -- °F
Precip. -- in
6:16 AM 5:33 PM
Waxing Gibbous, 87% visible
Pressure 30.01 in
Visibility 10.0 miles
Clouds Clear
Windchill 39 °F
Dew Point 25 °F
Humidity 50%
Rainfall 0.04 in
Snow Depth Not available.
UV 5 out of 12
Pollen .90 out of 12
Air Quality Not available.
Flu Activity Not available.
METAR KEKO 012056Z AUTO 00000KT 10SM CLR 07/M07 A3000 RMK AO2 SLP161 T00721067 58018

More Conditions Fewer Conditions

Pressure 30.01 in
Visibility 10.0 miles
Clouds Clear
Windchill 39 °F
Dew Point 25 °F
Humidity 50%
Rainfall 0.04 in
Snow Depth Not available.
UV 5 out of 12
Pollen .90 out of 12
Air Quality Not available.
Flu Activity Not available.
METAR KEKO 012056Z AUTO 00000KT 10SM CLR 07/M07 A3000 RMK AO2 SLP161 T00721067 58018

More Conditions Fewer Conditions

10-Day Weather Forecast

Almanac

Astronomy

Mar. 01, 2015 Rise Set
Actual Time
Civil Twilight
Nautical Twilight
Astronomical Twilight
Moon
Length of Visible Light
Length of Day
Tomorrow will be .
, % of the Moon is Illuminated

Today's Extremes

State Highs State Lows

Community

WunderPhotos

Upload Photos

1,801,563 photos uploaded!

WunderBlogs® & News

Nearby

Air Quality

  Air Quality AQ Index Pollutant
Not available.

Snow Depth

Station Depth Elevation

Earthquake Activity

City Distance Mag. Time & Date
Minimum magnitude displayed is 2.5.

Coastal Water Temperatures

Place Temperature

Nearby Weather Stations